createdAt,value
2019-04-14T00:00:46.864Z,7.51
2019-04-14T00:03:23.749Z,7.50
2019-04-14T00:05:58.276Z,7.55
2019-04-14T00:08:28.368Z,7.57
2019-04-14T00:10:59.306Z,7.60
2019-04-14T00:13:28.688Z,7.58
2019-04-14T00:15:58.855Z,7.55
2019-04-14T00:18:29.353Z,7.58
2019-04-14T00:20:59.771Z,7.60
2019-04-14T00:23:30.390Z,7.61
2019-04-14T00:26:25.437Z,7.63
2019-04-14T00:28:55.625Z,7.62
2019-04-14T00:31:26.173Z,7.59
2019-04-14T00:33:58.489Z,7.60
2019-04-14T00:36:35.242Z,7.60
2019-04-14T00:39:07.669Z,7.61
2019-04-14T00:41:44.850Z,7.65
2019-04-14T00:44:14.661Z,7.64
2019-04-14T00:46:58.178Z,7.62
2019-04-14T00:49:28.908Z,7.61
2019-04-14T00:51:59.323Z,7.57
2019-04-14T00:54:28.627Z,7.56
2019-04-14T00:56:58.473Z,7.58
2019-04-14T00:59:28.957Z,7.54
2019-04-14T01:01:59.166Z,7.55
2019-04-14T01:04:29.467Z,7.54
2019-04-14T01:07:00.064Z,7.55
2019-04-14T01:09:30.436Z,7.56
2019-04-14T01:12:01.812Z,7.59
2019-04-14T01:14:32.022Z,7.59
2019-04-14T01:17:02.639Z,7.57
2019-04-14T01:19:33.095Z,7.59
2019-04-14T01:22:03.202Z,7.60
2019-04-14T01:24:34.483Z,7.59
2019-04-14T01:27:04.013Z,7.59
2019-04-14T01:29:34.153Z,7.62
2019-04-14T01:32:04.557Z,7.62
2019-04-14T01:34:34.752Z,7.58
2019-04-14T01:37:05.162Z,7.58
2019-04-14T01:39:35.055Z,7.56
2019-04-14T01:42:04.943Z,7.53
2019-04-14T01:44:35.175Z,7.53
2019-04-14T01:47:05.302Z,7.51
2019-04-14T01:49:35.462Z,7.50
2019-04-14T01:52:06.670Z,7.51
2019-04-14T01:54:38.563Z,7.52
2019-04-14T01:57:19.971Z,7.55
2019-04-14T01:59:50.327Z,7.56
2019-04-14T02:02:22.626Z,7.55
2019-04-14T02:04:52.903Z,7.54
2019-04-14T02:07:25.636Z,7.54
2019-04-14T02:09:55.335Z,7.57
2019-04-14T02:12:25.634Z,7.53
2019-04-14T02:14:56.198Z,7.53
2019-04-14T02:17:26.355Z,7.54
2019-04-14T02:19:56.758Z,7.56
2019-04-14T02:22:26.664Z,7.59
2019-04-14T02:24:57.083Z,7.60
2019-04-14T02:27:27.416Z,7.61
2019-04-14T02:29:58.114Z,7.58
2019-04-14T02:32:57.484Z,7.56
2019-04-14T02:35:28.389Z,7.57
2019-04-14T02:38:03.433Z,7.60
2019-04-14T02:40:41.114Z,7.60
2019-04-14T02:43:04.337Z,7.59
2019-04-14T02:45:35.154Z,7.58
2019-04-14T02:48:20.444Z,7.59
2019-04-14T02:50:30.331Z,7.55
2019-04-14T02:53:09.070Z,7.53
2019-04-14T02:55:42.210Z,7.52
2019-04-14T02:58:10.208Z,7.54
2019-04-14T03:03:10.222Z,7.53
2019-04-14T03:05:44.422Z,7.49
2019-04-14T03:08:08.294Z,7.47
2019-04-14T03:10:40.440Z,7.48
2019-04-14T03:13:15.070Z,7.50
2019-04-14T03:15:53.776Z,7.49
2019-04-14T03:21:03.594Z,7.44
2019-04-14T03:23:46.360Z,7.42
2019-04-14T03:26:04.793Z,7.42
2019-04-14T03:31:37.505Z,7.46
2019-04-14T03:37:21.965Z,7.49
2019-04-14T03:41:27.370Z,7.42
2019-04-14T03:43:46.036Z,7.41
2019-04-14T03:46:25.461Z,7.42
2019-04-14T03:51:34.726Z,7.40
2019-04-14T03:53:53.145Z,7.41
2019-04-14T03:56:07.709Z,7.36
2019-04-14T03:58:35.720Z,7.39
2019-04-14T04:01:06.177Z,7.37
2019-04-14T04:03:36.751Z,7.39
2019-04-14T04:06:07.465Z,7.38
2019-04-14T04:08:37.704Z,7.38
2019-04-14T04:11:06.847Z,7.42
2019-04-14T04:13:36.614Z,7.40
2019-04-14T04:16:13.822Z,7.38
2019-04-14T04:18:51.255Z,7.37
2019-04-14T04:21:18.745Z,7.39
2019-04-14T04:23:53.299Z,7.41
2019-04-14T04:26:40.646Z,7.42
2019-04-14T04:29:17.911Z,7.46
2019-04-14T04:31:58.889Z,7.44
2019-04-14T04:34:33.797Z,7.41
2019-04-14T04:37:08.285Z,7.43
2019-04-14T04:39:43.214Z,7.43
2019-04-14T04:42:13.319Z,7.44
2019-04-14T04:44:42.667Z,7.43
2019-04-14T04:47:12.370Z,7.44
2019-04-14T04:49:42.668Z,7.46
2019-04-14T04:52:13.982Z,7.46
2019-04-14T04:54:42.943Z,7.42
2019-04-14T04:57:13.186Z,7.47
2019-04-14T04:59:43.058Z,7.49
2019-04-14T05:02:13.454Z,7.53
2019-04-14T05:04:43.827Z,7.58
2019-04-14T05:07:14.382Z,7.57
2019-04-14T05:09:49.100Z,7.54
2019-04-14T05:12:19.867Z,7.51
2019-04-14T05:15:03.623Z,7.45
2019-04-14T05:17:40.950Z,7.49
2019-04-14T05:20:11.387Z,7.52
2019-04-14T05:22:41.769Z,7.53
2019-04-14T05:25:12.369Z,7.56
2019-04-14T05:27:41.645Z,7.58
2019-04-14T05:30:13.196Z,7.60
2019-04-14T05:32:43.443Z,7.66
2019-04-14T05:35:14.040Z,7.72
2019-04-14T05:37:44.348Z,7.74
2019-04-14T05:40:14.566Z,7.67
2019-04-14T05:42:45.020Z,7.66
2019-04-14T05:45:15.460Z,7.71
2019-04-14T05:47:45.740Z,7.72
2019-04-14T05:50:15.867Z,7.81
2019-04-14T05:52:45.027Z,7.84
2019-04-14T05:55:14.205Z,7.83
2019-04-14T05:57:43.811Z,7.94
2019-04-14T06:00:16.650Z,8.01
2019-04-14T06:02:46.716Z,8.09
2019-04-14T06:05:16.588Z,8.03
2019-04-14T06:07:45.895Z,8.02
2019-04-14T06:10:15.175Z,8.01
2019-04-14T06:12:44.458Z,7.97
2019-04-14T06:15:14.086Z,8.01
2019-04-14T06:17:43.273Z,8.07
2019-04-14T06:20:12.834Z,8.01
2019-04-14T06:22:45.637Z,7.96
2019-04-14T06:25:14.843Z,7.94
2019-04-14T06:27:44.322Z,7.99
2019-04-14T06:30:30.585Z,8.01
2019-04-14T06:33:02.656Z,8.02
2019-04-14T06:35:39.637Z,8.12
2019-04-14T06:38:10.437Z,8.18
2019-04-14T06:40:41.214Z,8.19
2019-04-14T06:43:11.688Z,8.24
2019-04-14T06:45:41.061Z,8.23
2019-04-14T06:48:10.189Z,8.25
2019-04-14T06:50:39.321Z,8.28
2019-04-14T06:53:08.538Z,8.32
2019-04-14T06:55:37.768Z,8.42
2019-04-14T06:58:06.958Z,8.45
2019-04-14T07:00:36.201Z,8.62
2019-04-14T07:03:05.603Z,8.81
2019-04-14T07:05:34.861Z,8.93
2019-04-14T07:08:04.104Z,9.05
2019-04-14T07:10:33.242Z,9.04
2019-04-14T07:13:02.480Z,9.10
2019-04-14T07:15:31.705Z,9.07
2019-04-14T07:18:00.841Z,8.85
2019-04-14T07:20:29.970Z,8.95
2019-04-14T07:23:00.785Z,9.16
2019-04-14T07:25:29.983Z,9.24
2019-04-14T07:27:59.965Z,9.28
2019-04-14T07:30:43.215Z,9.38
2019-04-14T07:33:30.821Z,9.64
2019-04-14T07:36:17.800Z,9.76
2019-04-14T07:38:50.081Z,9.86
2019-04-14T07:41:20.935Z,10.01
2019-04-14T07:43:57.128Z,9.97
2019-04-14T07:46:41.412Z,9.71
2019-04-14T07:49:28.430Z,9.26
2019-04-14T07:52:08.204Z,9.55
2019-04-14T07:54:41.413Z,9.90
2019-04-14T07:57:30.502Z,10.03
2019-04-14T08:00:01.324Z,10.05
2019-04-14T08:02:37.917Z,10.13
2019-04-14T08:05:09.112Z,9.99
2019-04-14T08:07:39.701Z,10.25
2019-04-14T08:10:10.005Z,10.14
2019-04-14T08:12:39.182Z,10.26
2019-04-14T08:15:08.505Z,10.34
2019-04-14T08:17:37.727Z,10.55
2019-04-14T08:20:07.870Z,10.60
2019-04-14T08:22:37.032Z,10.68
2019-04-14T08:25:07.241Z,10.83
2019-04-14T08:27:36.541Z,10.92
2019-04-14T08:30:09.051Z,10.95
2019-04-14T08:32:38.250Z,10.87
2019-04-14T08:35:07.905Z,11.18
2019-04-14T08:37:37.265Z,11.14
2019-04-14T08:40:07.568Z,11.39
2019-04-14T08:42:50.552Z,11.39
2019-04-14T08:45:33.678Z,11.51
2019-04-14T08:48:10.503Z,11.85
2019-04-14T08:50:44.194Z,11.53
2019-04-14T08:53:20.836Z,11.26
2019-04-14T08:55:51.635Z,11.45
2019-04-14T08:58:28.411Z,11.89
2019-04-14T09:01:02.031Z,12.53
2019-04-14T09:03:38.603Z,12.80
2019-04-14T09:06:09.457Z,12.82
2019-04-14T09:08:40.281Z,12.79
2019-04-14T09:11:11.161Z,12.81
2019-04-14T09:13:43.447Z,13.06
2019-04-14T09:16:12.795Z,12.97
2019-04-14T09:18:43.522Z,13.46
2019-04-14T09:21:12.740Z,13.79
2019-04-14T09:23:46.074Z,14.36
2019-04-14T09:26:15.318Z,14.18
2019-04-14T09:28:46.478Z,13.93
2019-04-14T09:31:16.929Z,13.64
2019-04-14T09:33:47.912Z,13.48
2019-04-14T09:36:17.153Z,13.06
2019-04-14T09:38:46.138Z,12.93
2019-04-14T09:41:16.974Z,13.26
2019-04-14T09:43:46.178Z,13.46
2019-04-14T09:46:15.417Z,13.41
2019-04-14T09:48:46.327Z,13.40
2019-04-14T09:51:16.931Z,13.34
2019-04-14T09:53:49.583Z,12.88
2019-04-14T09:56:18.852Z,12.56
2019-04-14T09:58:50.684Z,12.84
2019-04-14T10:01:19.922Z,12.73
2019-04-14T10:03:50.642Z,12.83
2019-04-14T10:06:22.109Z,13.07
2019-04-14T10:08:51.384Z,13.28
2019-04-14T10:11:20.707Z,13.38
2019-04-14T10:13:51.293Z,13.52
2019-04-14T10:16:20.536Z,13.66
2019-04-14T10:18:51.029Z,13.62
2019-04-14T10:21:20.248Z,13.70
2019-04-14T10:23:49.399Z,13.99
2019-04-14T10:26:18.653Z,13.47
2019-04-14T10:28:50.639Z,13.36
2019-04-14T10:31:18.852Z,13.34
2019-04-14T10:33:48.535Z,13.42
2019-04-14T10:36:17.766Z,13.40
2019-04-14T10:38:47.074Z,13.43
2019-04-14T10:41:16.356Z,13.24
2019-04-14T10:43:45.568Z,13.20
2019-04-14T10:46:14.791Z,13.49
2019-04-14T10:48:44.111Z,13.43
2019-04-14T10:51:29.143Z,13.52
2019-04-14T10:53:50.146Z,13.80
2019-04-14T10:56:21.342Z,13.95
2019-04-14T10:58:50.647Z,13.83
2019-04-14T11:01:19.978Z,13.86
2019-04-14T11:03:49.317Z,13.78
2019-04-14T11:06:26.075Z,13.50
2019-04-14T11:08:55.291Z,13.89
2019-04-14T11:11:24.611Z,14.29
2019-04-14T11:13:53.777Z,14.24
2019-04-14T11:16:23.099Z,14.08
2019-04-14T11:18:52.477Z,14.02
2019-04-14T11:21:21.810Z,14.35
2019-04-14T11:23:51.068Z,14.45
2019-04-14T11:26:20.358Z,14.38
2019-04-14T11:28:49.577Z,14.53
2019-04-14T11:31:20.482Z,14.57
2019-04-14T11:33:54.151Z,14.67
2019-04-14T11:36:27.726Z,14.73
2019-04-14T11:39:01.539Z,14.76
2019-04-14T11:41:30.865Z,14.70
2019-04-14T11:44:00.148Z,14.83
2019-04-14T11:46:29.488Z,14.62
2019-04-14T11:48:59.165Z,14.71
2019-04-14T11:51:28.662Z,14.90
2019-04-14T11:53:58.041Z,14.74
2019-04-14T11:56:27.326Z,14.46
2019-04-14T11:58:56.650Z,14.49
2019-04-14T12:01:39.292Z,14.64
2019-04-14T12:04:10.177Z,14.72
2019-04-14T12:06:57.028Z,14.91
2019-04-14T12:09:33.530Z,15.14
2019-04-14T12:12:03.349Z,15.40
2019-04-14T12:14:32.753Z,15.53
2019-04-14T12:17:02.327Z,15.82
2019-04-14T12:19:31.455Z,15.96
2019-04-14T12:22:08.056Z,15.97
2019-04-14T12:24:31.571Z,15.92
2019-04-14T12:27:00.858Z,16.15
2019-04-14T12:29:30.449Z,16.00
2019-04-14T12:32:01.792Z,16.15
2019-04-14T12:34:31.259Z,16.39
2019-04-14T12:37:00.451Z,16.32
2019-04-14T12:39:29.893Z,16.42
2019-04-14T12:42:00.929Z,16.38
2019-04-14T12:44:31.745Z,16.36
2019-04-14T12:47:20.562Z,16.47
2019-04-14T12:49:51.417Z,16.68
2019-04-14T12:52:24.915Z,16.51
2019-04-14T12:54:54.097Z,16.30
2019-04-14T12:57:25.222Z,16.08
2019-04-14T12:59:54.523Z,15.86
2019-04-14T13:02:25.530Z,15.68
2019-04-14T13:04:55.472Z,15.62
2019-04-14T13:07:24.943Z,15.63
2019-04-14T13:09:54.339Z,15.23
2019-04-14T13:12:23.599Z,15.11
2019-04-14T13:14:52.887Z,15.03
2019-04-14T13:17:23.666Z,14.88
2019-04-14T13:19:52.889Z,14.97
2019-04-14T13:22:33.302Z,14.99
2019-04-14T13:24:53.095Z,14.80
2019-04-14T13:27:23.363Z,14.67
2019-04-14T13:29:52.712Z,14.68
2019-04-14T13:32:22.052Z,14.77
2019-04-14T13:34:51.270Z,14.81
2019-04-14T13:37:20.568Z,14.81
2019-04-14T13:39:49.837Z,14.88
2019-04-14T13:42:19.030Z,14.92
2019-04-14T13:44:48.325Z,14.93
2019-04-14T13:47:17.675Z,14.87
2019-04-14T13:49:46.920Z,14.81
2019-04-14T13:52:16.084Z,14.84
2019-04-14T13:54:45.371Z,14.87
2019-04-14T13:57:14.606Z,15.01
2019-04-14T13:59:43.917Z,14.99
2019-04-14T14:02:13.237Z,14.99
2019-04-14T14:04:42.712Z,15.06
2019-04-14T14:07:12.005Z,15.16
2019-04-14T14:09:41.487Z,15.23
2019-04-14T14:12:30.679Z,15.27
2019-04-14T14:15:07.331Z,15.13
2019-04-14T14:17:40.937Z,15.25
2019-04-14T14:20:11.967Z,15.27
2019-04-14T14:22:42.934Z,15.27
2019-04-14T14:25:19.359Z,15.25
2019-04-14T14:27:48.556Z,15.13
2019-04-14T14:30:19.416Z,15.25
2019-04-14T14:32:48.664Z,15.04
2019-04-14T14:35:17.908Z,14.96
2019-04-14T14:37:47.135Z,14.98
2019-04-14T14:40:16.808Z,14.97
2019-04-14T14:42:46.123Z,14.88
2019-04-14T14:45:19.529Z,14.81
2019-04-14T14:48:06.426Z,14.80
2019-04-14T14:50:37.292Z,14.74
2019-04-14T14:53:12.311Z,14.77
2019-04-14T14:55:37.635Z,14.76
2019-04-14T14:58:06.895Z,14.62
2019-04-14T15:00:36.243Z,14.49
2019-04-14T15:03:05.680Z,14.28
2019-04-14T15:05:34.855Z,14.24
2019-04-14T15:08:04.250Z,14.27
2019-04-14T15:10:33.601Z,14.26
2019-04-14T15:13:02.834Z,14.24
2019-04-14T15:15:32.060Z,14.22
2019-04-14T15:18:01.374Z,14.20
2019-04-14T15:20:30.692Z,14.19
2019-04-14T15:22:59.905Z,14.16
2019-04-14T15:25:29.288Z,14.03
2019-04-14T15:27:58.526Z,14.04
2019-04-14T15:30:27.735Z,14.08
2019-04-14T15:32:56.989Z,14.11
2019-04-14T15:35:26.277Z,14.05
2019-04-14T15:37:55.623Z,14.09
2019-04-14T15:40:24.887Z,14.06
2019-04-14T15:42:54.101Z,14.11
2019-04-14T15:45:24.178Z,14.14
2019-04-14T15:47:53.467Z,14.09
2019-04-14T15:50:22.756Z,14.02
2019-04-14T15:52:51.977Z,14.05
2019-04-14T15:55:21.311Z,14.06
2019-04-14T15:57:54.894Z,14.06
2019-04-14T16:00:43.365Z,14.07
2019-04-14T16:03:22.844Z,14.07
2019-04-14T16:05:56.611Z,14.08
2019-04-14T16:08:30.350Z,14.11
2019-04-14T16:11:04.012Z,14.11
2019-04-14T16:13:51.045Z,14.14
2019-04-14T16:16:24.539Z,14.16
2019-04-14T16:18:58.205Z,14.16
2019-04-14T16:21:27.364Z,14.20
2019-04-14T16:23:56.632Z,14.14
2019-04-14T16:26:27.513Z,14.07
2019-04-14T16:29:02.612Z,14.07
2019-04-14T16:31:50.014Z,14.06
2019-04-14T16:34:29.876Z,14.07
2019-04-14T16:36:59.209Z,14.07
2019-04-14T16:39:28.440Z,14.13
2019-04-14T16:41:57.741Z,14.16
2019-04-14T16:44:27.499Z,14.16
2019-04-14T16:46:56.827Z,14.22
2019-04-14T16:49:26.044Z,14.10
2019-04-14T16:51:56.975Z,14.04
2019-04-14T16:54:39.816Z,13.97
2019-04-14T16:57:10.711Z,13.92
2019-04-14T16:59:40.024Z,13.87
2019-04-14T17:02:10.982Z,13.81
2019-04-14T17:04:40.371Z,13.74
2019-04-14T17:07:09.677Z,13.72
2019-04-14T17:09:39.015Z,13.74
2019-04-14T17:12:08.349Z,13.63
2019-04-14T17:14:39.237Z,13.53
2019-04-14T17:17:10.104Z,13.42
2019-04-14T17:19:40.981Z,13.35
2019-04-14T17:22:14.415Z,13.77
2019-04-14T17:25:01.499Z,14.51
2019-04-14T17:27:32.360Z,15.05
2019-04-14T17:30:03.230Z,15.16
2019-04-14T17:32:34.132Z,14.78
2019-04-14T17:35:20.035Z,14.39
2019-04-14T17:37:50.975Z,14.09
2019-04-14T17:40:27.843Z,13.83
2019-04-14T17:43:14.977Z,13.68
2019-04-14T17:45:54.638Z,13.53
2019-04-14T17:48:41.816Z,13.42
2019-04-14T17:51:24.500Z,13.34
2019-04-14T17:54:04.209Z,13.27
2019-04-14T17:56:37.604Z,13.21
2019-04-14T17:59:20.246Z,13.16
2019-04-14T18:01:53.920Z,13.08
2019-04-14T18:04:36.941Z,12.97
2019-04-14T18:07:07.773Z,12.89
2019-04-14T18:09:38.697Z,12.80
2019-04-14T18:12:09.623Z,12.76
2019-04-14T18:14:52.420Z,12.74
2019-04-14T18:17:29.246Z,12.69
2019-04-14T18:20:00.163Z,12.64
2019-04-14T18:22:29.432Z,12.65
2019-04-14T18:24:58.744Z,12.62
2019-04-14T18:27:28.034Z,12.56
2019-04-14T18:30:01.730Z,12.54
2019-04-14T18:32:35.198Z,12.54
2019-04-14T18:35:06.787Z,12.54
2019-04-14T18:37:53.707Z,12.54
2019-04-14T18:40:36.470Z,12.55
2019-04-14T18:43:13.382Z,12.51
2019-04-14T18:45:44.254Z,12.51
2019-04-14T18:48:31.098Z,12.49
2019-04-14T18:51:04.450Z,12.52
2019-04-14T18:53:43.962Z,12.50
2019-04-14T18:56:30.819Z,12.45
2019-04-14T18:59:01.747Z,12.29
2019-04-14T19:01:35.187Z,12.08
2019-04-14T19:04:04.450Z,12.01
2019-04-14T19:06:33.726Z,11.89
2019-04-14T19:09:02.951Z,11.79
2019-04-14T19:11:33.724Z,11.79
2019-04-14T19:14:04.120Z,11.75
2019-04-14T19:16:39.631Z,11.68
2019-04-14T19:19:10.205Z,11.65
2019-04-14T19:21:39.503Z,11.60
2019-04-14T19:24:08.759Z,11.58
2019-04-14T19:26:38.018Z,11.56
2019-04-14T19:29:07.183Z,11.52
2019-04-14T19:31:36.463Z,11.49
2019-04-14T19:34:05.914Z,11.47
2019-04-14T19:36:35.149Z,11.42
2019-04-14T19:39:08.223Z,11.42
2019-04-14T19:41:37.495Z,11.42
2019-04-14T19:44:06.801Z,11.39
2019-04-14T19:46:36.029Z,11.38
2019-04-14T19:49:05.422Z,11.36
2019-04-14T19:51:34.604Z,11.33
2019-04-14T19:54:03.907Z,11.31
2019-04-14T19:56:33.144Z,11.34
2019-04-14T19:59:02.593Z,11.35
2019-04-14T20:01:31.831Z,11.31
2019-04-14T20:04:01.117Z,11.28
2019-04-14T20:06:30.415Z,11.26
2019-04-14T20:08:59.753Z,11.27
2019-04-14T20:11:29.118Z,11.30
2019-04-14T20:13:58.411Z,11.30
2019-04-14T20:16:44.437Z,11.27
2019-04-14T20:19:15.322Z,11.29
2019-04-14T20:21:52.239Z,11.26
2019-04-14T20:24:29.485Z,11.24
2019-04-14T20:27:00.530Z,11.21
2019-04-14T20:29:37.136Z,11.20
2019-04-14T20:32:08.263Z,11.19
2019-04-14T20:34:37.699Z,11.13
2019-04-14T20:37:07.567Z,11.01
2019-04-14T20:39:37.018Z,10.98
2019-04-14T20:42:06.913Z,10.99
2019-04-14T20:44:36.524Z,10.94
2019-04-14T20:47:07.425Z,10.89
2019-04-14T20:49:36.863Z,10.88
2019-04-14T20:52:06.091Z,10.84
2019-04-14T20:54:35.445Z,10.85
2019-04-14T20:57:04.840Z,10.84
2019-04-14T20:59:33.970Z,10.84
2019-04-14T21:02:04.927Z,10.87
2019-04-14T21:04:38.450Z,10.88
2019-04-14T21:07:25.562Z,10.80
2019-04-14T21:09:56.341Z,10.76
2019-04-14T21:12:39.167Z,10.75
2019-04-14T21:15:26.348Z,10.79
2019-04-14T21:18:06.188Z,10.77
2019-04-14T21:20:46.395Z,10.71
2019-04-14T21:23:17.240Z,10.69
2019-04-14T21:25:59.583Z,10.68
2019-04-14T21:28:23.294Z,10.69
2019-04-14T21:30:59.846Z,10.69
2019-04-14T21:33:36.390Z,10.68
2019-04-14T21:36:22.105Z,10.66
2019-04-14T21:39:11.085Z,10.66
2019-04-14T21:41:41.957Z,10.62
2019-04-14T21:44:11.180Z,10.63
2019-04-14T21:46:40.370Z,10.60
2019-04-14T21:49:09.671Z,10.54
2019-04-14T21:51:52.237Z,10.53
2019-04-14T21:54:21.883Z,10.51
2019-04-14T21:57:08.919Z,10.51
2019-04-14T21:59:55.809Z,10.51
2019-04-14T22:02:42.909Z,10.47
2019-04-14T22:05:16.335Z,10.44
2019-04-14T22:07:59.317Z,10.42
2019-04-14T22:10:30.358Z,10.41
2019-04-14T22:12:59.604Z,10.42
2019-04-14T22:15:28.853Z,10.42
2019-04-14T22:17:58.269Z,10.40
2019-04-14T22:20:27.495Z,10.41
2019-04-14T22:22:57.160Z,10.41
2019-04-14T22:25:26.609Z,10.34
2019-04-14T22:27:56.141Z,10.34
2019-04-14T22:30:25.523Z,10.33
2019-04-14T22:32:54.691Z,10.32
2019-04-14T22:35:23.984Z,10.30
2019-04-14T22:37:55.151Z,10.29
2019-04-14T22:40:24.390Z,10.30
2019-04-14T22:42:53.671Z,10.29
2019-04-14T22:45:22.990Z,10.29
2019-04-14T22:47:52.144Z,10.29
2019-04-14T22:50:21.455Z,10.30
2019-04-14T22:52:50.702Z,10.32
2019-04-14T22:55:19.939Z,10.32
2019-04-14T22:57:51.242Z,10.33
2019-04-14T23:00:26.889Z,10.32
2019-04-14T23:02:57.779Z,10.30
2019-04-14T23:05:44.646Z,10.27
2019-04-14T23:08:37.851Z,10.28
2019-04-14T23:11:24.708Z,10.24
2019-04-14T23:14:04.665Z,10.21
2019-04-14T23:16:50.292Z,10.21
2019-04-14T23:19:21.241Z,10.21
2019-04-14T23:22:01.122Z,10.20
2019-04-14T23:24:31.896Z,10.19
2019-04-14T23:27:01.119Z,10.18
2019-04-14T23:29:30.474Z,10.14
2019-04-14T23:32:00.195Z,10.12
2019-04-14T23:34:29.457Z,10.13
2019-04-14T23:36:58.650Z,10.14
2019-04-14T23:39:27.858Z,10.15
2019-04-14T23:41:57.142Z,10.15
2019-04-14T23:44:26.255Z,10.16
2019-04-14T23:46:55.428Z,10.19
2019-04-14T23:49:24.658Z,10.21
2019-04-14T23:51:53.862Z,10.18
2019-04-14T23:54:23.070Z,10.16
2019-04-14T23:57:04.438Z,10.14
2019-04-14T23:59:23.113Z,10.14
